sensor_id;sensor_type;location;lat;lon;timestamp;P1;durP1;ratioP1;P2;durP2;ratioP2
14030;SDS011;7090;49.436;8.490;2023-04-01T00:00:53;6.50;;;6.00;;
14030;SDS011;7090;49.436;8.490;2023-04-01T00:03:20;6.43;;;5.93;;
14030;SDS011;7090;49.436;8.490;2023-04-01T00:05:46;6.07;;;5.77;;
14030;SDS011;7090;49.436;8.490;2023-04-01T00:08:12;6.67;;;6.10;;
14030;SDS011;7090;49.436;8.490;2023-04-01T00:10:38;6.40;;;5.90;;
14030;SDS011;7090;49.436;8.490;2023-04-01T00:13:04;6.20;;;5.83;;
14030;SDS011;7090;49.436;8.490;2023-04-01T00:15:30;6.33;;;5.90;;
14030;SDS011;7090;49.436;8.490;2023-04-01T00:17:56;6.20;;;5.90;;
14030;SDS011;7090;49.436;8.490;2023-04-01T00:20:21;5.60;;;5.30;;
14030;SDS011;7090;49.436;8.490;2023-04-01T00:22:47;6.50;;;6.10;;
14030;SDS011;7090;49.436;8.490;2023-04-01T00:25:13;6.30;;;5.90;;
14030;SDS011;7090;49.436;8.490;2023-04-01T00:27:39;5.77;;;5.47;;
14030;SDS011;7090;49.436;8.490;2023-04-01T00:30:05;6.17;;;5.87;;
14030;SDS011;7090;49.436;8.490;2023-04-01T00:32:32;6.70;;;6.20;;
14030;SDS011;7090;49.436;8.490;2023-04-01T00:34:58;6.27;;;5.90;;
14030;SDS011;7090;49.436;8.490;2023-04-01T00:37:24;11.53;;;6.63;;
14030;SDS011;7090;49.436;8.490;2023-04-01T00:39:51;6.60;;;6.20;;
14030;SDS011;7090;49.436;8.490;2023-04-01T00:42:17;6.20;;;5.80;;
14030;SDS011;7090;49.436;8.490;2023-04-01T00:44:45;5.93;;;5.70;;
14030;SDS011;7090;49.436;8.490;2023-04-01T00:47:15;6.30;;;5.90;;
14030;SDS011;7090;49.436;8.490;2023-04-01T00:49:42;6.50;;;6.10;;
14030;SDS011;7090;49.436;8.490;2023-04-01T00:52:13;6.43;;;6.00;;
14030;SDS011;7090;49.436;8.490;2023-04-01T00:54:42;7.07;;;6.40;;
14030;SDS011;7090;49.436;8.490;2023-04-01T00:59:57;7.23;;;5.40;;
14030;SDS011;7090;49.436;8.490;2023-04-01T01:02:24;6.23;;;5.80;;
14030;SDS011;7090;49.436;8.490;2023-04-01T01:04:50;6.10;;;5.80;;
14030;SDS011;7090;49.436;8.490;2023-04-01T01:10:08;6.10;;;5.80;;
14030;SDS011;7090;49.436;8.490;2023-04-01T01:16:26;6.23;;;5.63;;
14030;SDS011;7090;49.436;8.490;2023-04-01T01:22:01;5.93;;;5.73;;
14030;SDS011;7090;49.436;8.490;2023-04-01T01:24:43;6.13;;;5.93;;
14030;SDS011;7090;49.436;8.490;2023-04-01T01:27:30;6.33;;;6.03;;
14030;SDS011;7090;49.436;8.490;2023-04-01T01:30:04;6.73;;;6.10;;
14030;SDS011;7090;49.436;8.490;2023-04-01T01:32:38;5.90;;;5.60;;
14030;SDS011;7090;49.436;8.490;2023-04-01T01:35:33;6.03;;;5.63;;
14030;SDS011;7090;49.436;8.490;2023-04-01T01:38:31;6.00;;;5.70;;
14030;SDS011;7090;49.436;8.490;2023-04-01T01:40:59;6.40;;;5.90;;
14030;SDS011;7090;49.436;8.490;2023-04-01T01:43:30;6.87;;;6.37;;
14030;SDS011;7090;49.436;8.490;2023-04-01T01:45:58;6.27;;;5.97;;
14030;SDS011;7090;49.436;8.490;2023-04-01T01:48:27;5.87;;;5.57;;
14030;SDS011;7090;49.436;8.490;2023-04-01T01:50:54;8.03;;;5.87;;
14030;SDS011;7090;49.436;8.490;2023-04-01T01:53:20;6.10;;;5.80;;
14030;SDS011;7090;49.436;8.490;2023-04-01T01:55:46;6.23;;;5.40;;
14030;SDS011;7090;49.436;8.490;2023-04-01T02:00:53;6.00;;;5.60;;
14030;SDS011;7090;49.436;8.490;2023-04-01T02:03:25;5.67;;;5.27;;
14030;SDS011;7090;49.436;8.490;2023-04-01T02:05:54;6.23;;;5.83;;
14030;SDS011;7090;49.436;8.490;2023-04-01T02:08:28;6.00;;;5.60;;
14030;SDS011;7090;49.436;8.490;2023-04-01T02:11:16;6.10;;;5.70;;
14030;SDS011;7090;49.436;8.490;2023-04-01T02:20:01;5.57;;;5.37;;
14030;SDS011;7090;49.436;8.490;2023-04-01T02:22:25;8.23;;;5.93;;
14030;SDS011;7090;49.436;8.490;2023-04-01T02:24:54;6.37;;;5.87;;
14030;SDS011;7090;49.436;8.490;2023-04-01T02:27:23;6.20;;;5.90;;
14030;SDS011;7090;49.436;8.490;2023-04-01T02:29:49;6.10;;;5.70;;
14030;SDS011;7090;49.436;8.490;2023-04-01T02:32:16;6.67;;;6.30;;
14030;SDS011;7090;49.436;8.490;2023-04-01T02:34:44;6.53;;;6.03;;
14030;SDS011;7090;49.436;8.490;2023-04-01T02:37:11;5.60;;;5.30;;
14030;SDS011;7090;49.436;8.490;2023-04-01T02:39:37;6.07;;;5.67;;
14030;SDS011;7090;49.436;8.490;2023-04-01T02:42:03;5.70;;;5.50;;
14030;SDS011;7090;49.436;8.490;2023-04-01T02:44:29;5.63;;;5.37;;
14030;SDS011;7090;49.436;8.490;2023-04-01T02:46:54;6.80;;;6.30;;
14030;SDS011;7090;49.436;8.490;2023-04-01T02:49:20;6.90;;;6.37;;
14030;SDS011;7090;49.436;8.490;2023-04-01T02:51:46;6.70;;;6.20;;
14030;SDS011;7090;49.436;8.490;2023-04-01T02:54:11;6.33;;;6.13;;
14030;SDS011;7090;49.436;8.490;2023-04-01T02:56:37;6.60;;;6.20;;
14030;SDS011;7090;49.436;8.490;2023-04-01T02:59:03;7.07;;;6.70;;
14030;SDS011;7090;49.436;8.490;2023-04-01T03:01:29;6.10;;;5.90;;
14030;SDS011;7090;49.436;8.490;2023-04-01T03:03:54;6.17;;;5.97;;
14030;SDS011;7090;49.436;8.490;2023-04-01T03:06:20;6.57;;;6.13;;
14030;SDS011;7090;49.436;8.490;2023-04-01T03:08:46;6.77;;;6.30;;
14030;SDS011;7090;49.436;8.490;2023-04-01T03:11:12;6.50;;;6.10;;
14030;SDS011;7090;49.436;8.490;2023-04-01T03:13:38;6.20;;;5.90;;
14030;SDS011;7090;49.436;8.490;2023-04-01T03:16:04;6.70;;;6.30;;
14030;SDS011;7090;49.436;8.490;2023-04-01T03:18:30;6.37;;;6.07;;
14030;SDS011;7090;49.436;8.490;2023-04-01T03:20:56;6.97;;;6.50;;
14030;SDS011;7090;49.436;8.490;2023-04-01T03:23:21;6.70;;;6.10;;
14030;SDS011;7090;49.436;8.490;2023-04-01T03:25:49;7.20;;;6.60;;
14030;SDS011;7090;49.436;8.490;2023-04-01T03:28:15;7.07;;;6.60;;
14030;SDS011;7090;49.436;8.490;2023-04-01T03:30:41;7.20;;;6.70;;
14030;SDS011;7090;49.436;8.490;2023-04-01T03:33:06;7.43;;;6.93;;
14030;SDS011;7090;49.436;8.490;2023-04-01T03:35:32;7.50;;;6.80;;
14030;SDS011;7090;49.436;8.490;2023-04-01T03:37:58;7.23;;;6.73;;
14030;SDS011;7090;49.436;8.490;2023-04-01T03:40:24;7.30;;;6.83;;
14030;SDS011;7090;49.436;8.490;2023-04-01T03:42:51;6.80;;;6.50;;
14030;SDS011;7090;49.436;8.490;2023-04-01T03:45:17;7.07;;;6.50;;
14030;SDS011;7090;49.436;8.490;2023-04-01T03:47:43;6.90;;;6.43;;
14030;SDS011;7090;49.436;8.490;2023-04-01T03:50:09;6.80;;;6.40;;
14030;SDS011;7090;49.436;8.490;2023-04-01T03:52:35;7.00;;;6.30;;
14030;SDS011;7090;49.436;8.490;2023-04-01T03:55:01;6.83;;;6.40;;
14030;SDS011;7090;49.436;8.490;2023-04-01T03:57:27;6.40;;;6.10;;
14030;SDS011;7090;49.436;8.490;2023-04-01T03:59:53;7.03;;;6.40;;
14030;SDS011;7090;49.436;8.490;2023-04-01T04:02:18;6.70;;;6.30;;
14030;SDS011;7090;49.436;8.490;2023-04-01T04:04:44;6.83;;;6.43;;
14030;SDS011;7090;49.436;8.490;2023-04-01T04:07:11;6.50;;;6.20;;
14030;SDS011;7090;49.436;8.490;2023-04-01T04:09:37;6.50;;;6.20;;
14030;SDS011;7090;49.436;8.490;2023-04-01T04:12:02;6.73;;;6.23;;
14030;SDS011;7090;49.436;8.490;2023-04-01T04:14:30;6.67;;;6.17;;
14030;SDS011;7090;49.436;8.490;2023-04-01T04:16:58;6.23;;;5.90;;
14030;SDS011;7090;49.436;8.490;2023-04-01T04:19:24;6.07;;;5.77;;
14030;SDS011;7090;49.436;8.490;2023-04-01T04:21:50;6.30;;;6.00;;
14030;SDS011;7090;49.436;8.490;2023-04-01T04:24:15;6.17;;;5.87;;
14030;SDS011;7090;49.436;8.490;2023-04-01T04:26:41;6.53;;;6.13;;
14030;SDS011;7090;49.436;8.490;2023-04-01T04:29:06;6.30;;;6.10;;
14030;SDS011;7090;49.436;8.490;2023-04-01T04:31:32;6.43;;;6.13;;
14030;SDS011;7090;49.436;8.490;2023-04-01T04:33:58;6.70;;;6.40;;
14030;SDS011;7090;49.436;8.490;2023-04-01T04:36:25;6.87;;;6.47;;
14030;SDS011;7090;49.436;8.490;2023-04-01T04:38:51;7.03;;;6.50;;
14030;SDS011;7090;49.436;8.490;2023-04-01T04:41:17;6.57;;;6.27;;
14030;SDS011;7090;49.436;8.490;2023-04-01T04:43:48;7.67;;;6.90;;
14030;SDS011;7090;49.436;8.490;2023-04-01T04:46:18;6.80;;;6.40;;
14030;SDS011;7090;49.436;8.490;2023-04-01T04:48:45;6.90;;;6.33;;
14030;SDS011;7090;49.436;8.490;2023-04-01T04:51:14;6.93;;;6.43;;
14030;SDS011;7090;49.436;8.490;2023-04-01T04:53:41;6.93;;;6.43;;
14030;SDS011;7090;49.436;8.490;2023-04-01T04:56:07;7.47;;;6.93;;
14030;SDS011;7090;49.436;8.490;2023-04-01T04:58:32;6.97;;;6.57;;
14030;SDS011;7090;49.436;8.490;2023-04-01T05:00:58;7.10;;;6.67;;
14030;SDS011;7090;49.436;8.490;2023-04-01T05:03:24;9.97;;;7.70;;
14030;SDS011;7090;49.436;8.490;2023-04-01T05:05:51;7.90;;;7.30;;
14030;SDS011;7090;49.436;8.490;2023-04-01T05:08:18;6.50;;;6.20;;
14030;SDS011;7090;49.436;8.490;2023-04-01T05:10:44;6.87;;;6.40;;
14030;SDS011;7090;49.436;8.490;2023-04-01T05:13:11;7.23;;;6.53;;
14030;SDS011;7090;49.436;8.490;2023-04-01T05:15:36;6.97;;;6.20;;
14030;SDS011;7090;49.436;8.490;2023-04-01T05:18:02;7.10;;;6.60;;
14030;SDS011;7090;49.436;8.490;2023-04-01T05:20:28;6.70;;;6.20;;
14030;SDS011;7090;49.436;8.490;2023-04-01T05:22:57;7.80;;;7.10;;
14030;SDS011;7090;49.436;8.490;2023-04-01T05:25:23;7.23;;;6.93;;
14030;SDS011;7090;49.436;8.490;2023-04-01T05:27:49;7.27;;;6.67;;
14030;SDS011;7090;49.436;8.490;2023-04-01T05:30:15;6.77;;;6.33;;
14030;SDS011;7090;49.436;8.490;2023-04-01T05:32:40;7.27;;;6.67;;
14030;SDS011;7090;49.436;8.490;2023-04-01T05:35:06;7.47;;;6.87;;
14030;SDS011;7090;49.436;8.490;2023-04-01T05:37:35;7.17;;;6.63;;
14030;SDS011;7090;49.436;8.490;2023-04-01T05:40:02;6.83;;;6.53;;
14030;SDS011;7090;49.436;8.490;2023-04-01T05:42:29;7.10;;;6.70;;
14030;SDS011;7090;49.436;8.490;2023-04-01T05:44:54;7.20;;;6.70;;
14030;SDS011;7090;49.436;8.490;2023-04-01T05:47:20;6.53;;;6.23;;
14030;SDS011;7090;49.436;8.490;2023-04-01T05:49:47;7.57;;;6.60;;
14030;SDS011;7090;49.436;8.490;2023-04-01T05:52:12;7.23;;;6.83;;
14030;SDS011;7090;49.436;8.490;2023-04-01T05:54:38;7.10;;;6.80;;
14030;SDS011;7090;49.436;8.490;2023-04-01T05:57:04;8.52;;;7.35;;
14030;SDS011;7090;49.436;8.490;2023-04-01T05:59:29;6.63;;;6.30;;
14030;SDS011;7090;49.436;8.490;2023-04-01T06:01:56;7.53;;;6.83;;
14030;SDS011;7090;49.436;8.490;2023-04-01T06:04:22;6.70;;;6.20;;
14030;SDS011;7090;49.436;8.490;2023-04-01T06:06:48;6.73;;;6.13;;
14030;SDS011;7090;49.436;8.490;2023-04-01T06:09:15;6.63;;;6.22;;
14030;SDS011;7090;49.436;8.490;2023-04-01T06:14:51;6.37;;;6.07;;
14030;SDS011;7090;49.436;8.490;2023-04-01T06:22:45;6.90;;;6.30;;
14030;SDS011;7090;49.436;8.490;2023-04-01T06:30:43;6.10;;;5.63;;
14030;SDS011;7090;49.436;8.490;2023-04-01T06:49:57;8.23;;;6.20;;
14030;SDS011;7090;49.436;8.490;2023-04-01T06:52:37;6.70;;;6.30;;
14030;SDS011;7090;49.436;8.490;2023-04-01T06:57:35;6.93;;;6.43;;
14030;SDS011;7090;49.436;8.490;2023-04-01T07:00:26;6.30;;;5.90;;
14030;SDS011;7090;49.436;8.490;2023-04-01T07:02:59;7.27;;;6.57;;
14030;SDS011;7090;49.436;8.490;2023-04-01T07:05:35;6.80;;;6.50;;
14030;SDS011;7090;49.436;8.490;2023-04-01T07:08:01;7.03;;;6.63;;
14030;SDS011;7090;49.436;8.490;2023-04-01T07:13:17;7.00;;;6.60;;
14030;SDS011;7090;49.436;8.490;2023-04-01T07:16:47;6.80;;;6.40;;
14030;SDS011;7090;49.436;8.490;2023-04-01T07:18:45;6.97;;;6.57;;
14030;SDS011;7090;49.436;8.490;2023-04-01T07:21:28;6.70;;;6.30;;
14030;SDS011;7090;49.436;8.490;2023-04-01T07:24:24;6.90;;;6.43;;
14030;SDS011;7090;49.436;8.490;2023-04-01T07:26:53;6.90;;;6.33;;
14030;SDS011;7090;49.436;8.490;2023-04-01T07:29:20;7.00;;;6.70;;
14030;SDS011;7090;49.436;8.490;2023-04-01T07:31:59;6.60;;;6.40;;
14030;SDS011;7090;49.436;8.490;2023-04-01T07:48:30;6.95;;;6.45;;
14030;SDS011;7090;49.436;8.490;2023-04-01T07:51:03;6.57;;;6.17;;
14030;SDS011;7090;49.436;8.490;2023-04-01T07:53:44;7.37;;;6.77;;
14030;SDS011;7090;49.436;8.490;2023-04-01T07:56:37;6.97;;;6.47;;
14030;SDS011;7090;49.436;8.490;2023-04-01T08:07:27;6.60;;;6.30;;
14030;SDS011;7090;49.436;8.490;2023-04-01T08:10:02;7.10;;;6.70;;
14030;SDS011;7090;49.436;8.490;2023-04-01T08:15:28;7.20;;;6.70;;
14030;SDS011;7090;49.436;8.490;2023-04-01T08:20:46;6.30;;;5.90;;
14030;SDS011;7090;49.436;8.490;2023-04-01T08:23:16;6.07;;;5.77;;
14030;SDS011;7090;49.436;8.490;2023-04-01T08:28:17;6.30;;;6.10;;
14030;SDS011;7090;49.436;8.490;2023-04-01T08:31:04;6.10;;;5.50;;
14030;SDS011;7090;49.436;8.490;2023-04-01T08:33:34;6.00;;;5.70;;
14030;SDS011;7090;49.436;8.490;2023-04-01T08:36:05;6.03;;;5.53;;
14030;SDS011;7090;49.436;8.490;2023-04-01T08:38:43;6.20;;;5.80;;
14030;SDS011;7090;49.436;8.490;2023-04-01T08:52:16;5.80;;;5.30;;
14030;SDS011;7090;49.436;8.490;2023-04-01T08:55:25;5.80;;;5.50;;
14030;SDS011;7090;49.436;8.490;2023-04-01T09:00:57;8.10;;;5.80;;
14030;SDS011;7090;49.436;8.490;2023-04-01T09:06:42;5.40;;;5.20;;
14030;SDS011;7090;49.436;8.490;2023-04-01T09:35:14;5.53;;;5.33;;
14030;SDS011;7090;49.436;8.490;2023-04-01T09:38:11;5.95;;;5.65;;
14030;SDS011;7090;49.436;8.490;2023-04-01T09:40:57;5.00;;;4.80;;
14030;SDS011;7090;49.436;8.490;2023-04-01T09:48:39;5.40;;;5.10;;
14030;SDS011;7090;49.436;8.490;2023-04-01T09:53:48;5.83;;;5.50;;
14030;SDS011;7090;49.436;8.490;2023-04-01T09:56:27;5.73;;;5.50;;
14030;SDS011;7090;49.436;8.490;2023-04-01T09:59:07;6.37;;;5.87;;
14030;SDS011;7090;49.436;8.490;2023-04-01T10:04:53;6.10;;;5.80;;
14030;SDS011;7090;49.436;8.490;2023-04-01T10:10:35;5.40;;;5.10;;
14030;SDS011;7090;49.436;8.490;2023-04-01T10:33:08;5.03;;;4.83;;
14030;SDS011;7090;49.436;8.490;2023-04-01T10:44:56;6.00;;;5.70;;
14030;SDS011;7090;49.436;8.490;2023-04-01T10:55:37;5.80;;;5.43;;
14030;SDS011;7090;49.436;8.490;2023-04-01T11:01:27;5.28;;;5.07;;
14030;SDS011;7090;49.436;8.490;2023-04-01T11:15:55;5.17;;;4.97;;
14030;SDS011;7090;49.436;8.490;2023-04-01T11:18:34;5.80;;;5.50;;
14030;SDS011;7090;49.436;8.490;2023-04-01T11:24:33;5.47;;;5.27;;
14030;SDS011;7090;49.436;8.490;2023-04-01T11:27:36;5.53;;;5.33;;
14030;SDS011;7090;49.436;8.490;2023-04-01T11:33:07;5.70;;;5.50;;
14030;SDS011;7090;49.436;8.490;2023-04-01T11:35:51;5.90;;;5.70;;
14030;SDS011;7090;49.436;8.490;2023-04-01T11:44:16;5.67;;;5.47;;
14030;SDS011;7090;49.436;8.490;2023-04-01T11:51:52;6.40;;;6.00;;
14030;SDS011;7090;49.436;8.490;2023-04-01T11:57:28;6.20;;;5.77;;
14030;SDS011;7090;49.436;8.490;2023-04-01T12:05:54;5.60;;;5.40;;
14030;SDS011;7090;49.436;8.490;2023-04-01T12:08:36;5.63;;;5.43;;
14030;SDS011;7090;49.436;8.490;2023-04-01T12:13:42;5.80;;;5.60;;
14030;SDS011;7090;49.436;8.490;2023-04-01T12:19:18;7.82;;;7.35;;
14030;SDS011;7090;49.436;8.490;2023-04-01T12:22:19;6.43;;;6.07;;
14030;SDS011;7090;49.436;8.490;2023-04-01T12:27:29;6.70;;;6.40;;
14030;SDS011;7090;49.436;8.490;2023-04-01T12:32:34;6.40;;;6.10;;
14030;SDS011;7090;49.436;8.490;2023-04-01T12:46:31;5.90;;;5.70;;
14030;SDS011;7090;49.436;8.490;2023-04-01T12:59:58;5.90;;;5.70;;
14030;SDS011;7090;49.436;8.490;2023-04-01T13:02:46;5.60;;;5.40;;
14030;SDS011;7090;49.436;8.490;2023-04-01T13:08:43;5.80;;;5.60;;
14030;SDS011;7090;49.436;8.490;2023-04-01T13:25:24;6.60;;;6.30;;
14030;SDS011;7090;49.436;8.490;2023-04-01T13:28:01;6.33;;;6.03;;
14030;SDS011;7090;49.436;8.490;2023-04-01T13:35:58;6.33;;;6.03;;
14030;SDS011;7090;49.436;8.490;2023-04-01T13:44:14;5.90;;;5.70;;
14030;SDS011;7090;49.436;8.490;2023-04-01T13:52:52;5.90;;;5.70;;
14030;SDS011;7090;49.436;8.490;2023-04-01T14:00:42;5.80;;;5.50;;
14030;SDS011;7090;49.436;8.490;2023-04-01T14:06:18;6.00;;;5.80;;
14030;SDS011;7090;49.436;8.490;2023-04-01T14:26:07;5.90;;;5.70;;
14030;SDS011;7090;49.436;8.490;2023-04-01T14:45:17;6.20;;;5.90;;
14030;SDS011;7090;49.436;8.490;2023-04-01T14:48:15;5.80;;;5.60;;
14030;SDS011;7090;49.436;8.490;2023-04-01T14:50:44;6.30;;;6.00;;
14030;SDS011;7090;49.436;8.490;2023-04-01T14:55:57;6.13;;;5.83;;
14030;SDS011;7090;49.436;8.490;2023-04-01T14:58:31;5.60;;;5.40;;
14030;SDS011;7090;49.436;8.490;2023-04-01T15:01:18;6.10;;;5.70;;
14030;SDS011;7090;49.436;8.490;2023-04-01T15:04:35;5.80;;;5.50;;
14030;SDS011;7090;49.436;8.490;2023-04-01T15:10:34;5.40;;;5.20;;
14030;SDS011;7090;49.436;8.490;2023-04-01T15:15:58;5.97;;;5.77;;
14030;SDS011;7090;49.436;8.490;2023-04-01T15:29:16;5.70;;;5.50;;
14030;SDS011;7090;49.436;8.490;2023-04-01T15:31:46;6.00;;;5.80;;
14030;SDS011;7090;49.436;8.490;2023-04-01T15:35:18;6.27;;;5.97;;
14030;SDS011;7090;49.436;8.490;2023-04-01T15:40:24;6.30;;;6.10;;
14030;SDS011;7090;49.436;8.490;2023-04-01T15:42:59;6.70;;;6.30;;
14030;SDS011;7090;49.436;8.490;2023-04-01T15:48:40;6.20;;;5.90;;
14030;SDS011;7090;49.436;8.490;2023-04-01T16:09:06;5.90;;;5.63;;
14030;SDS011;7090;49.436;8.490;2023-04-01T16:11:55;6.03;;;5.75;;
14030;SDS011;7090;49.436;8.490;2023-04-01T16:25:50;5.03;;;4.87;;
14030;SDS011;7090;49.436;8.490;2023-04-01T16:36:20;4.73;;;4.60;;
14030;SDS011;7090;49.436;8.490;2023-04-01T16:41:41;5.07;;;4.87;;
14030;SDS011;7090;49.436;8.490;2023-04-01T16:44:22;5.30;;;5.00;;
14030;SDS011;7090;49.436;8.490;2023-04-01T16:46:51;4.70;;;4.60;;
14030;SDS011;7090;49.436;8.490;2023-04-01T16:49:24;5.00;;;4.80;;
14030;SDS011;7090;49.436;8.490;2023-04-01T16:52:12;4.90;;;4.70;;
14030;SDS011;7090;49.436;8.490;2023-04-01T16:54:53;4.90;;;4.60;;
14030;SDS011;7090;49.436;8.490;2023-04-01T16:57:36;4.80;;;4.70;;
14030;SDS011;7090;49.436;8.490;2023-04-01T17:00:48;4.80;;;4.60;;
14030;SDS011;7090;49.436;8.490;2023-04-01T17:03:16;4.70;;;4.50;;
14030;SDS011;7090;49.436;8.490;2023-04-01T17:19:28;4.90;;;4.70;;
14030;SDS011;7090;49.436;8.490;2023-04-01T17:37:22;5.30;;;5.00;;
14030;SDS011;7090;49.436;8.490;2023-04-01T17:51:50;5.27;;;5.07;;
14030;SDS011;7090;49.436;8.490;2023-04-01T17:54:41;5.47;;;5.17;;
14030;SDS011;7090;49.436;8.490;2023-04-01T18:00:02;5.50;;;5.30;;
14030;SDS011;7090;49.436;8.490;2023-04-01T18:05:19;6.90;;;6.60;;
14030;SDS011;7090;49.436;8.490;2023-04-01T18:08:17;7.90;;;7.60;;
14030;SDS011;7090;49.436;8.490;2023-04-01T18:11:05;7.70;;;7.40;;
14030;SDS011;7090;49.436;8.490;2023-04-01T18:13:46;7.80;;;7.50;;
14030;SDS011;7090;49.436;8.490;2023-04-01T18:22:26;7.90;;;7.60;;
14030;SDS011;7090;49.436;8.490;2023-04-01T18:25:12;7.90;;;7.60;;
14030;SDS011;7090;49.436;8.490;2023-04-01T18:30:40;8.83;;;8.50;;
14030;SDS011;7090;49.436;8.490;2023-04-01T18:33:17;7.93;;;7.63;;
14030;SDS011;7090;49.436;8.490;2023-04-01T18:38:54;8.30;;;8.00;;
14030;SDS011;7090;49.436;8.490;2023-04-01T18:41:30;8.10;;;7.80;;
14030;SDS011;7090;49.436;8.490;2023-04-01T18:50:02;7.00;;;6.70;;
14030;SDS011;7090;49.436;8.490;2023-04-01T18:52:43;7.37;;;7.07;;
14030;SDS011;7090;49.436;8.490;2023-04-01T18:55:24;6.80;;;6.60;;
14030;SDS011;7090;49.436;8.490;2023-04-01T18:58:11;6.97;;;6.68;;
14030;SDS011;7090;49.436;8.490;2023-04-01T19:03:26;6.40;;;6.20;;
14030;SDS011;7090;49.436;8.490;2023-04-01T19:06:08;6.40;;;6.20;;
14030;SDS011;7090;49.436;8.490;2023-04-01T19:08:52;6.70;;;6.30;;
14030;SDS011;7090;49.436;8.490;2023-04-01T19:11:21;6.47;;;6.27;;
14030;SDS011;7090;49.436;8.490;2023-04-01T19:19:58;5.90;;;5.70;;
14030;SDS011;7090;49.436;8.490;2023-04-01T19:30:48;6.00;;;5.80;;
14030;SDS011;7090;49.436;8.490;2023-04-01T19:36:49;6.00;;;5.80;;
14030;SDS011;7090;49.436;8.490;2023-04-01T19:42:56;5.93;;;5.73;;
14030;SDS011;7090;49.436;8.490;2023-04-01T19:45:11;6.10;;;5.90;;
14030;SDS011;7090;49.436;8.490;2023-04-01T19:50:58;6.67;;;6.27;;
14030;SDS011;7090;49.436;8.490;2023-04-01T19:53:35;6.38;;;6.15;;
14030;SDS011;7090;49.436;8.490;2023-04-01T19:56:20;6.50;;;6.20;;
14030;SDS011;7090;49.436;8.490;2023-04-01T19:58:52;6.50;;;6.20;;
14030;SDS011;7090;49.436;8.490;2023-04-01T20:03:57;6.40;;;6.20;;
14030;SDS011;7090;49.436;8.490;2023-04-01T20:06:35;6.33;;;6.10;;
14030;SDS011;7090;49.436;8.490;2023-04-01T20:15:22;5.87;;;5.67;;
14030;SDS011;7090;49.436;8.490;2023-04-01T20:17:57;6.97;;;6.57;;
14030;SDS011;7090;49.436;8.490;2023-04-01T20:20:27;6.80;;;6.40;;
14030;SDS011;7090;49.436;8.490;2023-04-01T20:25:52;6.37;;;6.17;;
14030;SDS011;7090;49.436;8.490;2023-04-01T20:28:25;6.40;;;6.10;;
14030;SDS011;7090;49.436;8.490;2023-04-01T20:36:58;6.40;;;6.20;;
14030;SDS011;7090;49.436;8.490;2023-04-01T20:51:03;6.30;;;6.10;;
14030;SDS011;7090;49.436;8.490;2023-04-01T21:10:09;7.30;;;6.90;;
14030;SDS011;7090;49.436;8.490;2023-04-01T21:29:59;6.10;;;5.90;;
14030;SDS011;7090;49.436;8.490;2023-04-01T21:46:11;6.60;;;6.30;;
14030;SDS011;7090;49.436;8.490;2023-04-01T21:54:33;7.00;;;6.70;;
14030;SDS011;7090;49.436;8.490;2023-04-01T21:57:36;6.63;;;6.30;;
14030;SDS011;7090;49.436;8.490;2023-04-01T22:00:20;6.40;;;6.20;;
14030;SDS011;7090;49.436;8.490;2023-04-01T22:10:57;6.70;;;6.40;;
14030;SDS011;7090;49.436;8.490;2023-04-01T22:21:44;7.57;;;6.90;;
14030;SDS011;7090;49.436;8.490;2023-04-01T22:24:49;6.90;;;6.50;;
14030;SDS011;7090;49.436;8.490;2023-04-01T22:27:33;6.67;;;6.37;;
14030;SDS011;7090;49.436;8.490;2023-04-01T22:33:06;6.47;;;6.27;;
14030;SDS011;7090;49.436;8.490;2023-04-01T22:41:24;6.30;;;6.10;;
14030;SDS011;7090;49.436;8.490;2023-04-01T22:43:54;7.10;;;6.70;;
14030;SDS011;7090;49.436;8.490;2023-04-01T22:49:26;7.60;;;6.90;;
14030;SDS011;7090;49.436;8.490;2023-04-01T22:52:05;6.70;;;6.40;;
14030;SDS011;7090;49.436;8.490;2023-04-01T22:54:46;6.60;;;6.40;;
14030;SDS011;7090;49.436;8.490;2023-04-01T23:00:00;6.70;;;6.50;;
14030;SDS011;7090;49.436;8.490;2023-04-01T23:02:34;7.00;;;6.70;;
14030;SDS011;7090;49.436;8.490;2023-04-01T23:05:03;6.43;;;6.23;;
14030;SDS011;7090;49.436;8.490;2023-04-01T23:07:41;6.60;;;6.30;;
14030;SDS011;7090;49.436;8.490;2023-04-01T23:10:51;7.37;;;7.07;;
14030;SDS011;7090;49.436;8.490;2023-04-01T23:13:27;7.07;;;6.87;;
14030;SDS011;7090;49.436;8.490;2023-04-01T23:15:57;6.90;;;6.70;;
14030;SDS011;7090;49.436;8.490;2023-04-01T23:21:00;8.70;;;8.20;;
14030;SDS011;7090;49.436;8.490;2023-04-01T23:23:46;8.00;;;7.70;;
14030;SDS011;7090;49.436;8.490;2023-04-01T23:26:24;8.60;;;8.10;;
14030;SDS011;7090;49.436;8.490;2023-04-01T23:28:51;8.03;;;7.73;;
14030;SDS011;7090;49.436;8.490;2023-04-01T23:31:41;8.60;;;8.00;;
14030;SDS011;7090;49.436;8.490;2023-04-01T23:36:41;7.90;;;7.60;;
14030;SDS011;7090;49.436;8.490;2023-04-01T23:41:53;7.60;;;7.30;;
14030;SDS011;7090;49.436;8.490;2023-04-01T23:44:28;7.47;;;7.17;;
14030;SDS011;7090;49.436;8.490;2023-04-01T23:46:54;7.00;;;6.70;;
14030;SDS011;7090;49.436;8.490;2023-04-01T23:49:23;7.50;;;7.20;;
14030;SDS011;7090;49.436;8.490;2023-04-01T23:51:58;6.93;;;6.67;;
14030;SDS011;7090;49.436;8.490;2023-04-01T23:54:33;6.70;;;6.50;;
14030;SDS011;7090;49.436;8.490;2023-04-01T23:57:10;7.00;;;6.70;;
14030;SDS011;7090;49.436;8.490;2023-04-01T23:59:42;6.70;;;6.47;;
